Time;durP1;ratioP1;P1;durP2;ratioP2;P2;SDS_P1;SDS_P2;PMS_P1;PMS_P2;Temp;Humidity;BMP_temperature;BMP_pressure;BME280_temperature;BME280_humidity;BME280_pressure;Samples;Min_cycle;Max_cycle;Signal;HPM_P1;HPM_P2
2021/09/12 00:00:54;;;;;;;5.28;2.95;;;;;;;15.80;40.51;93884.59;4995989;28;20026;-79
2021/09/12 00:03:19;;;;;;;3.80;2.38;;;;;;;15.81;40.01;93865.47;4991480;28;20053;-79
2021/09/12 00:05:45;;;;;;;4.38;3.05;;;;;;;15.72;41.03;93878.28;4993149;28;20038;-75
2021/09/12 00:08:11;;;;;;;5.13;2.55;;;;;;;15.71;40.57;93878.59;4991189;28;20466;-79
2021/09/12 00:10:36;;;;;;;4.15;3.25;;;;;;;15.70;40.72;93869.78;4992964;28;20081;-78
2021/09/12 00:13:01;;;;;;;6.18;2.55;;;;;;;15.57;40.65;93867.50;4990704;28;20029;-79
2021/09/12 00:15:27;;;;;;;6.55;2.78;;;;;;;15.79;40.80;93880.38;4994345;28;20042;-79
2021/09/12 00:17:53;;;;;;;4.05;2.67;;;;;;;15.66;40.36;93878.84;4990396;28;20542;-79
2021/09/12 00:20:19;;;;;;;4.00;2.60;;;;;;;15.52;41.40;93878.47;4988687;28;20053;-80
2021/09/12 00:22:44;;;;;;;4.63;2.78;;;;;;;15.44;40.81;93870.25;4991736;28;20129;-78
2021/09/12 00:25:10;;;;;;;3.85;2.55;;;;;;;15.49;41.46;93879.19;4991996;28;20112;-78
2021/09/12 00:27:36;;;;;;;6.85;2.88;;;;;;;15.20;42.14;93861.50;4988386;28;20050;-79
2021/09/12 00:30:03;;;;;;;6.72;2.60;;;;;;;15.29;42.23;93880.91;5000143;28;20256;-78
2021/09/12 00:32:28;;;;;;;4.25;3.38;;;;;;;15.20;41.22;93856.94;4993848;28;20038;-79
2021/09/12 00:34:54;;;;;;;5.53;2.92;;;;;;;15.27;41.44;93878.53;4993470;28;20039;-80
2021/09/12 00:37:19;;;;;;;5.55;2.95;;;;;;;15.22;42.07;93886.81;4994791;28;20153;-79
2021/09/12 00:39:44;;;;;;;5.78;3.63;;;;;;;15.09;41.61;93849.72;4994624;28;20033;-79
2021/09/12 00:42:10;;;;;;;4.35;2.78;;;;;;;15.00;42.28;93863.25;4991355;28;20038;-78
2021/09/12 00:44:35;;;;;;;4.30;3.05;;;;;;;15.10;42.07;93883.41;4999254;28;20065;-79
2021/09/12 00:47:12;;;;;;;6.85;3.38;;;;;;;15.09;41.82;93882.63;4994640;28;20038;-77
2021/09/12 00:49:40;;;;;;;4.47;3.05;;;;;;;15.07;41.74;93874.16;4995939;28;20135;-79
2021/09/12 00:52:11;;;;;;;3.33;2.55;;;;;;;15.12;41.83;93883.84;4989641;28;20026;-79
2021/09/12 00:54:37;;;;;;;7.22;2.60;;;;;;;15.02;41.82;93883.19;4994367;28;20050;-79
2021/09/12 00:57:06;;;;;;;4.15;2.88;;;;;;;15.10;41.96;93886.09;4994701;28;20121;-79
2021/09/12 00:59:35;;;;;;;5.50;2.72;;;;;;;14.97;42.10;93870.03;4992184;28;20117;-78
2021/09/12 01:02:02;;;;;;;3.85;2.63;;;;;;;14.98;41.87;93882.31;4999050;28;20053;-79
2021/09/12 01:04:27;;;;;;;3.05;2.40;;;;;;;14.99;41.06;93862.47;4993067;28;20033;-79
2021/09/12 01:06:53;;;;;;;3.38;2.35;;;;;;;15.09;41.65;93882.63;4995437;28;20112;-78
2021/09/12 01:09:18;;;;;;;3.03;2.28;;;;;;;14.99;41.94;93883.88;4990411;28;20072;-79
2021/09/12 01:11:44;;;;;;;6.95;3.03;;;;;;;14.91;42.41;93882.09;4996252;28;20253;-79
2021/09/12 01:14:10;;;;;;;3.83;3.08;;;;;;;14.98;41.73;93881.53;4995264;28;20033;-79
2021/09/12 01:16:35;;;;;;;3.33;2.55;;;;;;;14.93;41.16;93865.69;4992492;28;20054;-79
2021/09/12 01:19:01;;;;;;;4.82;2.67;;;;;;;15.01;41.63;93880.84;4994671;28;20030;-79
2021/09/12 01:21:26;;;;;;;3.83;2.83;;;;;;;14.89;42.39;93889.72;4994807;28;20066;-77
2021/09/12 01:23:53;;;;;;;3.05;2.55;;;;;;;14.86;42.46;93885.00;4993444;28;20041;-79
2021/09/12 01:26:23;;;;;;;3.80;2.78;;;;;;;14.83;42.37;93882.22;4990818;28;20045;-78
2021/09/12 01:28:48;;;;;;;7.20;3.08;;;;;;;14.68;42.58;93866.88;4992010;28;20074;-79
2021/09/12 01:31:29;;;;;;;3.90;2.38;;;;;;;14.80;42.59;93888.28;4995301;28;20065;-79
2021/09/12 01:33:56;;;;;;;5.00;3.00;;;;;;;14.58;42.75;93873.47;4994253;28;20053;-77
2021/09/12 01:36:22;;;;;;;13.32;3.22;;;;;;;14.64;42.36;93868.66;4994574;28;20030;-79
2021/09/12 01:38:47;;;;;;;3.47;2.78;;;;;;;14.58;42.82;93866.22;4990024;28;20049;-79
2021/09/12 01:41:13;;;;;;;3.15;2.85;;;;;;;14.76;42.76;93884.72;4995857;28;20033;-79
2021/09/12 01:43:59;;;;;;;5.93;2.47;;;;;;;14.69;42.56;93885.28;4988548;28;20499;-79
2021/09/12 01:46:26;;;;;;;4.18;2.70;;;;;;;14.62;43.19;93876.25;4994972;28;20642;-78
2021/09/12 01:48:52;;;;;;;2.85;2.25;;;;;;;14.74;42.43;93874.34;4993986;28;20034;-79
2021/09/12 01:51:18;;;;;;;4.20;2.47;;;;;;;14.92;41.86;93882.88;4993340;28;20106;-77
2021/09/12 01:53:44;;;;;;;4.25;2.60;;;;;;;14.76;42.43;93874.00;4993564;28;20041;-77
2021/09/12 01:56:11;;;;;;;3.80;2.40;;;;;;;14.84;41.52;93878.44;4991146;28;20042;-79
2021/09/12 01:58:36;;;;;;;5.25;2.45;;;;;;;14.87;41.25;93880.44;4994053;28;20113;-79
2021/09/12 02:01:03;;;;;;;4.15;2.70;;;;;;;14.87;41.88;93877.75;4994270;28;20036;-79
2021/09/12 02:03:28;;;;;;;5.25;2.47;;;;;;;14.80;41.79;93889.06;4994742;28;20049;-79
2021/09/12 02:05:54;;;;;;;3.25;2.15;;;;;;;14.76;41.74;93880.16;4994332;28;20105;-80
2021/09/12 02:08:19;;;;;;;4.30;2.50;;;;;;;14.63;41.98;93869.75;4991292;28;20176;-80
2021/09/12 02:10:44;;;;;;;3.65;2.70;;;;;;;14.67;41.39;93876.03;4994291;28;20088;-79
2021/09/12 02:13:14;;;;;;;2.75;2.20;;;;;;;14.40;41.92;93831.97;4990765;28;20388;-79
2021/09/12 02:15:40;;;;;;;5.15;2.85;;;;;;;14.74;41.55;93882.38;4991418;28;20046;-79
2021/09/12 02:18:05;;;;;;;4.32;2.78;;;;;;;14.78;41.21;93877.91;4993861;28;20056;-80
2021/09/12 02:20:31;;;;;;;4.28;2.65;;;;;;;14.79;41.48;93879.47;4991985;28;20123;-79
2021/09/12 02:22:56;;;;;;;3.17;1.95;;;;;;;14.66;41.92;93863.75;4990053;28;20050;-80
2021/09/12 02:25:22;;;;;;;2.67;2.17;;;;;;;14.67;41.95;93882.13;4992456;28;20501;-78
2021/09/12 02:27:47;;;;;;;2.65;2.20;;;;;;;14.76;41.70;93876.69;4990891;28;20469;-79
2021/09/12 02:30:14;;;;;;;4.05;2.35;;;;;;;14.72;41.90;93883.81;4991618;28;20341;-79
2021/09/12 02:32:39;;;;;;;3.22;2.35;;;;;;;14.65;42.44;93870.22;4993186;28;20086;-79
2021/09/12 02:35:05;;;;;;;4.93;2.10;;;;;;;14.87;41.46;93869.72;4990774;28;20045;-80
2021/09/12 02:37:30;;;;;;;3.53;2.67;;;;;;;14.59;41.11;93826.84;4987958;28;20033;-79
2021/09/12 02:39:56;;;;;;;2.60;1.83;;;;;;;14.73;41.87;93859.38;4988536;28;20041;-78
2021/09/12 02:42:21;;;;;;;5.70;2.20;;;;;;;14.76;41.50;93857.94;4986057;28;20074;-79
2021/09/12 02:44:47;;;;;;;3.15;2.35;;;;;;;14.86;41.19;93874.28;4991998;28;20555;-79
2021/09/12 02:47:13;;;;;;;3.22;2.28;;;;;;;14.69;41.75;93860.41;4993139;28;20138;-80
2021/09/12 02:49:38;;;;;;;3.63;2.58;;;;;;;14.80;41.65;93872.22;4993764;28;20150;-80
2021/09/12 02:52:04;;;;;;;6.00;2.40;;;;;;;14.80;41.77;93864.19;4990370;28;20507;-79
2021/09/12 02:54:30;;;;;;;4.95;2.75;;;;;;;14.57;41.84;93840.56;4990459;28;20419;-79
2021/09/12 02:56:55;;;;;;;3.65;2.55;;;;;;;14.50;41.85;93842.22;4990561;28;20929;-80
2021/09/12 02:59:20;;;;;;;7.47;3.10;;;;;;;14.48;42.51;93847.13;4988790;28;20041;-76
2021/09/12 03:01:46;;;;;;;4.80;3.20;;;;;;;14.58;42.03;93868.88;4996630;28;20053;-79
2021/09/12 03:04:11;;;;;;;6.32;2.60;;;;;;;14.40;42.45;93848.81;4987478;28;20153;-79
2021/09/12 03:06:37;;;;;;;3.35;2.40;;;;;;;14.38;42.85;93879.66;4991121;28;20584;-79
2021/09/12 03:09:02;;;;;;;5.25;3.03;;;;;;;14.43;42.69;93882.91;4987939;28;20115;-80
2021/09/12 03:11:27;;;;;;;3.45;2.65;;;;;;;14.34;43.08;93868.09;4992253;28;20030;-80
2021/09/12 03:13:53;;;;;;;3.65;2.60;;;;;;;14.12;42.38;93830.00;4988668;28;20516;-79
2021/09/12 03:16:18;;;;;;;3.42;2.72;;;;;;;14.53;42.41;93881.69;4987403;28;20065;-80
2021/09/12 03:18:45;;;;;;;4.22;3.03;;;;;;;14.46;42.58;93876.91;4987458;28;20034;-79
2021/09/12 03:21:11;;;;;;;3.15;2.30;;;;;;;14.16;43.31;93868.31;4988915;28;20105;-78
2021/09/12 03:23:37;;;;;;;4.90;2.85;;;;;;;13.99;43.16;93838.31;4985912;28;20047;-80
2021/09/12 03:26:03;;;;;;;3.70;2.70;;;;;;;14.17;43.31;93890.50;4992219;28;20064;-80
2021/09/12 03:28:28;;;;;;;4.78;2.72;;;;;;;14.10;43.93;93888.38;4990684;28;20026;-79
2021/09/12 03:30:54;;;;;;;4.65;2.65;;;;;;;14.22;43.07;93886.81;4992521;28;20034;-77
2021/09/12 03:33:19;;;;;;;5.30;2.53;;;;;;;14.11;43.37;93873.09;4990574;28;20397;-78
2021/09/12 03:35:45;;;;;;;4.32;3.67;;;;;;;14.12;43.27;93864.75;4986847;28;20450;-80
2021/09/12 03:38:11;;;;;;;7.95;3.70;;;;;;;14.24;43.38;93880.00;4990997;28;20030;-79
2021/09/12 03:40:37;;;;;;;7.57;3.00;;;;;;;14.23;42.92;93878.44;4991507;28;20042;-79
2021/09/12 03:43:02;;;;;;;6.40;2.60;;;;;;;14.26;42.83;93877.00;4985451;28;20057;-79
2021/09/12 03:45:28;;;;;;;5.18;2.72;;;;;;;14.15;43.26;93868.66;4990908;28;20042;-79
2021/09/12 03:47:53;;;;;;;4.75;3.00;;;;;;;14.03;43.79;93885.44;4992623;28;20037;-79
2021/09/12 03:50:18;;;;;;;6.80;3.20;;;;;;;13.61;43.61;93820.69;4991488;28;20046;-81
2021/09/12 03:52:44;;;;;;;4.78;2.90;;;;;;;14.01;43.85;93886.91;4988416;28;20038;-79
2021/09/12 03:55:10;;;;;;;4.90;3.45;;;;;;;13.91;44.39;93876.63;4990536;28;20447;-79
2021/09/12 03:57:36;;;;;;;3.53;3.10;;;;;;;13.94;44.20;93889.34;4989828;28;20046;-79
2021/09/12 04:00:03;;;;;;;4.95;3.50;;;;;;;13.86;43.84;93864.28;4986856;28;20031;-79
2021/09/12 04:02:28;;;;;;;3.85;3.15;;;;;;;14.17;43.11;93885.94;4988407;28;20631;-80
2021/09/12 04:04:54;;;;;;;7.28;2.97;;;;;;;14.00;43.24;93858.59;4988819;28;20042;-80
2021/09/12 04:07:19;;;;;;;6.05;3.63;;;;;;;14.14;43.26;93886.59;4994130;28;20060;-79
2021/09/12 04:09:44;;;;;;;5.43;3.22;;;;;;;14.02;43.41;93891.94;4990714;28;20404;-79
2021/09/12 04:12:15;;;;;;;5.78;3.72;;;;;;;14.11;43.39;93897.19;4992063;28;20038;-79
2021/09/12 04:14:41;;;;;;;5.40;3.58;;;;;;;13.89;43.68;93874.28;4998360;28;20563;-79
2021/09/12 04:17:06;;;;;;;6.30;2.80;;;;;;;13.90;43.88;93881.19;4990760;28;20084;-79
2021/09/12 04:19:32;;;;;;;5.43;3.40;;;;;;;13.82;44.31;93892.78;4989131;28;20037;-76
2021/09/12 04:21:58;;;;;;;4.03;3.13;;;;;;;13.97;43.88;93900.16;4991428;28;20029;-80
2021/09/12 04:24:24;;;;;;;6.43;3.28;;;;;;;13.99;43.92;93902.50;4985976;28;20030;-81
2021/09/12 04:26:50;;;;;;;5.35;3.70;;;;;;;13.92;44.54;93911.06;4990095;28;20121;-79
2021/09/12 04:29:15;;;;;;;6.03;4.03;;;;;;;13.84;44.24;93887.13;4989799;28;20042;-79
2021/09/12 04:31:41;;;;;;;6.60;4.90;;;;;;;13.98;44.61;93904.41;4991461;28;20041;-79
2021/09/12 04:34:06;;;;;;;8.13;3.97;;;;;;;13.99;44.88;93905.16;4989751;28;20489;-79
2021/09/12 04:36:32;;;;;;;10.85;4.10;;;;;;;14.01;44.79;93897.59;4988268;28;20133;-79
2021/09/12 04:38:57;;;;;;;8.80;3.88;;;;;;;14.02;45.29;93888.47;4989014;28;20524;-80
2021/09/12 04:41:22;;;;;;;6.72;3.65;;;;;;;14.49;44.47;93889.59;4989584;28;20490;-79
2021/09/12 04:43:48;;;;;;;12.52;3.85;;;;;;;14.59;43.75;93888.41;4990757;28;20424;-80
2021/09/12 04:46:13;;;;;;;5.30;4.00;;;;;;;14.75;44.36;93899.22;4985548;28;20026;-79
2021/09/12 04:48:39;;;;;;;10.75;5.20;;;;;;;14.61;44.84;93907.59;4987466;28;20137;-80
2021/09/12 04:51:04;;;;;;;6.93;4.85;;;;;;;14.67;45.01;93902.81;4990280;28;20030;-79
2021/09/12 04:53:30;;;;;;;8.90;4.85;;;;;;;14.94;44.58;93905.53;4995962;28;20485;-79
2021/09/12 04:55:55;;;;;;;12.02;5.15;;;;;;;14.77;44.59;93896.97;4989141;28;20042;-78
2021/09/12 04:58:21;;;;;;;6.35;5.13;;;;;;;14.69;45.20;93897.88;4987434;28;20026;-78
2021/09/12 05:00:46;;;;;;;8.52;4.88;;;;;;;14.70;44.67;93902.13;4995429;28;20492;-80
2021/09/12 05:03:12;;;;;;;8.30;5.18;;;;;;;14.82;45.86;93910.13;4990510;28;20069;-80
2021/09/12 05:05:37;;;;;;;11.30;5.07;;;;;;;14.83;45.67;93917.03;4990690;28;20095;-79
2021/09/12 05:08:03;;;;;;;9.10;4.70;;;;;;;14.72;45.20;93894.50;4982564;28;20042;-80
2021/09/12 05:10:28;;;;;;;14.68;6.57;;;;;;;15.04;44.09;93918.47;4990339;28;20057;-80
2021/09/12 05:12:54;;;;;;;13.65;7.35;;;;;;;15.02;43.56;93917.22;4991069;28;20026;-80
2021/09/12 05:15:19;;;;;;;15.60;5.95;;;;;;;15.14;43.77;93909.19;4992470;28;20562;-80
2021/09/12 05:17:45;;;;;;;13.73;5.85;;;;;;;15.40;43.37;93919.50;4992406;28;20080;-80
2021/09/12 05:20:11;;;;;;;12.20;6.72;;;;;;;15.15;42.71;93913.44;4997818;28;20213;-79
2021/09/12 05:22:38;;;;;;;11.98;6.82;;;;;;;15.32;42.08;93913.16;4990551;28;20517;-81
2021/09/12 05:25:03;;;;;;;11.23;6.53;;;;;;;15.45;42.05;93921.94;4996858;28;20052;-80
2021/09/12 05:27:29;;;;;;;16.98;7.53;;;;;;;15.56;41.65;93919.56;4992476;28;20038;-79
2021/09/12 05:29:54;;;;;;;13.18;6.78;;;;;;;15.82;41.03;93920.69;4994720;28;20057;-80
2021/09/12 05:32:19;;;;;;;15.43;6.82;;;;;;;15.75;41.46;93911.66;4992908;28;20460;-80
2021/09/12 05:34:45;;;;;;;8.60;6.78;;;;;;;15.71;42.02;93918.81;4992461;28;20049;-78
2021/09/12 05:37:10;;;;;;;11.82;6.75;;;;;;;15.85;41.82;93925.34;4994755;28;20112;-79
2021/09/12 05:39:36;;;;;;;11.32;6.38;;;;;;;15.80;41.78;93908.72;4991353;28;20046;-80
2021/09/12 05:42:02;;;;;;;14.75;6.30;;;;;;;15.85;41.01;93887.03;4990925;28;20038;-80
2021/09/12 05:44:28;;;;;;;8.52;6.75;;;;;;;16.06;41.00;93930.50;4992622;28;20738;-79
2021/09/12 05:46:53;;;;;;;10.00;6.80;;;;;;;16.09;41.19;93920.97;4992392;28;20038;-80
2021/09/12 05:49:19;;;;;;;12.18;7.18;;;;;;;16.20;40.70;93922.03;4994898;28;20122;-80
2021/09/12 05:51:46;;;;;;;16.60;7.25;;;;;;;16.21;41.32;93920.91;4995787;28;20045;-80
2021/09/12 05:54:11;;;;;;;14.60;8.73;;;;;;;16.08;42.10;93922.91;4989714;28;20602;-79
2021/09/12 05:56:37;;;;;;;9.30;7.90;;;;;;;16.07;42.12;93905.25;4992148;28;20050;-78
2021/09/12 05:59:02;;;;;;;12.65;7.35;;;;;;;16.18;42.29;93918.94;4997351;28;20037;-80
2021/09/12 06:01:28;;;;;;;17.25;9.77;;;;;;;16.20;42.31;93925.50;4992432;28;20033;-77
2021/09/12 06:03:53;;;;;;;11.40;8.13;;;;;;;16.23;42.03;93905.25;4992594;28;20025;-81
2021/09/12 06:06:18;;;;;;;12.02;8.75;;;;;;;15.76;42.27;93856.91;4993510;28;20147;-79
2021/09/12 06:08:44;;;;;;;14.57;8.18;;;;;;;16.23;42.31;93927.47;4994342;28;20030;-79
2021/09/12 06:11:10;;;;;;;11.30;7.57;;;;;;;16.34;42.26;93927.78;4992904;28;20030;-80
2021/09/12 06:13:38;;;;;;;15.25;8.00;;;;;;;16.44;41.53;93921.88;4993695;28;20180;-79
2021/09/12 06:16:05;;;;;;;13.23;8.40;;;;;;;16.50;41.50;93930.47;4994440;28;20027;-80
2021/09/12 06:18:31;;;;;;;14.50;7.50;;;;;;;16.56;41.32;93937.13;4992266;28;20039;-80
2021/09/12 06:20:57;;;;;;;18.55;8.63;;;;;;;16.69;40.28;93919.78;4995058;28;20606;-80
2021/09/12 06:23:23;;;;;;;11.40;7.63;;;;;;;16.65;40.95;93935.84;4990003;28;20034;-80
2021/09/12 06:25:48;;;;;;;13.10;8.98;;;;;;;16.70;41.54;93916.00;4995404;28;20065;-80
2021/09/12 06:28:14;;;;;;;11.40;6.88;;;;;;;16.56;41.53;93900.34;4989334;28;20130;-81
2021/09/12 06:30:39;;;;;;;9.32;7.53;;;;;;;16.50;40.77;93876.78;4993300;28;20026;-80
2021/09/12 06:33:05;;;;;;;15.93;8.80;;;;;;;16.95;40.01;93933.44;4992055;28;20149;-80
2021/09/12 06:35:30;;;;;;;11.80;8.20;;;;;;;17.15;39.29;93931.63;4993681;28;20034;-78
2021/09/12 06:37:55;;;;;;;13.95;7.95;;;;;;;17.27;39.39;93925.31;4993304;28;20140;-80
2021/09/12 06:40:23;;;;;;;10.77;7.38;;;;;;;17.04;39.62;93915.22;4987205;28;20045;-80
2021/09/12 06:42:50;;;;;;;15.10;7.32;;;;;;;17.23;38.98;93935.22;4995585;28;20029;-80
2021/09/12 06:45:16;;;;;;;13.65;7.25;;;;;;;17.44;38.05;93933.00;4993216;28;20057;-80
2021/09/12 06:47:41;;;;;;;9.50;6.50;;;;;;;17.62;37.18;93939.50;4993804;28;20504;-80
2021/09/12 06:50:07;;;;;;;8.98;6.68;;;;;;;17.60;37.01;93917.56;4990879;28;20045;-80
2021/09/12 06:52:33;;;;;;;10.55;6.97;;;;;;;17.77;36.62;93933.28;4994244;28;20385;-80
2021/09/12 06:54:58;;;;;;;13.88;6.70;;;;;;;17.73;37.35;93935.13;4990895;28;20587;-79
2021/09/12 06:57:23;;;;;;;13.75;6.53;;;;;;;17.91;36.39;93940.81;4993965;28;20049;-80
2021/09/12 06:59:49;;;;;;;11.80;6.85;;;;;;;17.87;36.65;93935.38;4990489;28;20598;-80
2021/09/12 07:02:14;;;;;;;12.57;6.53;;;;;;;17.94;36.25;93946.31;4990550;28;20040;-80
2021/09/12 07:04:40;;;;;;;11.05;6.28;;;;;;;17.85;35.98;93934.16;4994139;28;20057;-81
2021/09/12 07:07:05;;;;;;;11.70;7.10;;;;;;;17.90;36.00;93940.03;4994070;28;20046;-80
2021/09/12 07:09:31;;;;;;;10.38;7.43;;;;;;;17.87;36.48;93935.38;4989967;28;21435;-80
2021/09/12 07:11:56;;;;;;;12.38;6.68;;;;;;;17.95;36.50;93942.47;4991608;28;20050;-79
2021/09/12 07:14:22;;;;;;;9.63;6.00;;;;;;;18.09;36.08;93943.91;4991234;28;20039;-78
2021/09/12 07:16:47;;;;;;;11.48;6.03;;;;;;;18.14;36.03;93935.53;4989206;28;20056;-80
2021/09/12 07:19:12;;;;;;;14.93;6.32;;;;;;;18.35;35.24;93938.56;4991632;28;20017;-80
2021/09/12 07:21:38;;;;;;;11.50;5.88;;;;;;;18.40;36.19;93935.59;4992201;28;20033;-79
2021/09/12 07:24:04;;;;;;;12.05;6.40;;;;;;;18.30;36.85;93928.88;4992064;28;20058;-81
2021/09/12 07:26:30;;;;;;;12.13;6.95;;;;;;;18.41;36.67;93932.53;4988418;28;20403;-80
2021/09/12 07:28:55;;;;;;;10.52;6.30;;;;;;;18.44;35.78;93928.34;4990764;28;20116;-80
2021/09/12 07:31:21;;;;;;;13.70;6.20;;;;;;;18.60;36.13;93934.41;4990699;28;20397;-80
2021/09/12 07:33:46;;;;;;;10.85;7.00;;;;;;;18.67;36.74;93929.13;4992048;28;20026;-78
2021/09/12 07:36:11;;;;;;;10.00;6.90;;;;;;;18.80;36.38;93949.38;4994949;28;20030;-79
2021/09/12 07:38:37;;;;;;;14.52;6.90;;;;;;;18.88;34.80;93934.09;4989422;28;20684;-81
2021/09/12 07:41:03;;;;;;;9.20;6.22;;;;;;;18.87;36.32;93927.91;4994110;28;20522;-80
2021/09/12 07:43:29;;;;;;;11.70;6.47;;;;;;;18.98;35.48;93922.69;4990531;28;20122;-80
2021/09/12 07:45:55;;;;;;;13.60;6.75;;;;;;;19.09;36.25;93923.63;4994986;28;20022;-81
2021/09/12 07:48:20;;;;;;;16.50;6.88;;;;;;;19.11;35.90;93921.34;4991289;28;20042;-79
2021/09/12 07:50:46;;;;;;;13.20;6.63;;;;;;;19.05;36.06;93914.72;4994111;28;20034;-80
2021/09/12 07:53:12;;;;;;;10.73;6.97;;;;;;;19.04;36.63;93918.53;4996140;28;20145;-79
2021/09/12 07:55:37;;;;;;;12.98;6.38;;;;;;;19.24;36.85;93921.91;4990921;28;20499;-80
2021/09/12 07:58:03;;;;;;;11.07;6.88;;;;;;;19.18;36.54;93926.03;4991816;28;20131;-80
2021/09/12 08:00:28;;;;;;;13.75;6.88;;;;;;;19.23;36.27;93907.63;4989175;28;21054;-81
2021/09/12 08:02:54;;;;;;;11.13;6.72;;;;;;;19.48;36.57;93921.47;4996380;28;20038;-82
2021/09/12 08:05:19;;;;;;;10.75;6.55;;;;;;;19.65;36.81;93917.44;4990622;28;20502;-78
2021/09/12 08:07:44;;;;;;;10.50;5.63;;;;;;;19.60;36.04;93915.06;4991564;28;20034;-81
2021/09/12 08:10:10;;;;;;;14.75;6.53;;;;;;;19.48;35.99;93921.47;4993837;28;20026;-80
2021/09/12 08:12:35;;;;;;;15.85;6.75;;;;;;;19.61;37.29;93916.59;4991966;28;20034;-79
2021/09/12 08:15:01;;;;;;;9.27;5.93;;;;;;;19.73;35.63;93909.06;4991578;28;20046;-79
2021/09/12 08:17:26;;;;;;;11.13;5.45;;;;;;;19.80;36.31;93913.00;4990949;28;20038;-80
2021/09/12 08:19:51;;;;;;;10.02;6.07;;;;;;;19.74;35.91;93915.25;4988287;28;20398;-81
2021/09/12 08:22:17;;;;;;;8.68;5.75;;;;;;;19.87;36.61;93918.47;4990454;28;20473;-80
2021/09/12 08:24:42;;;;;;;9.70;6.35;;;;;;;19.75;35.23;93898.66;4990939;28;20022;-79
2021/09/12 08:27:08;;;;;;;11.88;5.68;;;;;;;19.99;35.82;93910.91;4995543;28;20030;-80
2021/09/12 08:29:33;;;;;;;9.75;5.13;;;;;;;19.97;34.62;93909.69;4996926;28;20038;-80
2021/09/12 08:31:59;;;;;;;10.63;4.53;;;;;;;19.99;35.12;93905.50;4994234;28;20397;-80
2021/09/12 08:34:24;;;;;;;11.30;6.30;;;;;;;20.02;34.88;93896.66;4992653;28;20470;-80
2021/09/12 08:36:50;;;;;;;9.65;5.13;;;;;;;20.11;34.87;93894.44;4991276;28;20287;-81
2021/09/12 08:39:16;;;;;;;7.45;4.97;;;;;;;20.11;34.54;93894.44;4989099;28;20042;-80
2021/09/12 08:41:41;;;;;;;10.13;5.47;;;;;;;20.37;34.46;93893.53;4992282;28;20041;-79
2021/09/12 08:44:08;;;;;;;15.02;4.82;;;;;;;20.19;34.46;93898.00;4993144;28;20568;-79
2021/09/12 08:46:33;;;;;;;12.50;4.82;;;;;;;20.39;35.15;93904.75;4989935;28;20662;-80
2021/09/12 08:48:59;;;;;;;10.48;5.28;;;;;;;20.29;33.63;93858.75;4995999;28;20504;-80
2021/09/12 08:51:24;;;;;;;10.65;4.97;;;;;;;20.22;34.59;93842.47;4995749;28;20037;-79
2021/09/12 08:53:51;;;;;;;8.98;5.20;;;;;;;20.55;34.92;93888.28;4998205;28;20064;-80
2021/09/12 08:56:17;;;;;;;10.38;5.28;;;;;;;20.51;34.50;93885.56;4992861;28;20033;-80
2021/09/12 08:58:42;;;;;;;9.90;5.03;;;;;;;20.53;34.94;93850.06;4996297;28;20111;-80
2021/09/12 09:01:07;;;;;;;10.45;5.88;;;;;;;20.89;33.98;93878.13;4995832;28;20026;-80
2021/09/12 09:03:38;;;;;;;12.52;5.68;;;;;;;20.76;33.99;93871.47;4992969;28;20072;-80
2021/09/12 09:06:33;;;;;;;9.05;5.72;;;;;;;20.77;33.83;93879.19;4997597;28;20052;-80
2021/09/12 09:09:00;;;;;;;11.20;5.28;;;;;;;20.93;34.17;93870.81;5000787;28;20523;-80
2021/09/12 09:11:39;;;;;;;8.60;5.50;;;;;;;20.80;33.40;93869.56;4996909;28;20046;-81
2021/09/12 09:14:21;;;;;;;8.98;5.53;;;;;;;20.46;34.25;93853.50;5000121;28;20959;-80
2021/09/12 09:16:49;;;;;;;11.20;5.18;;;;;;;20.64;33.83;93866.34;4996410;28;20443;-80
2021/09/12 09:19:15;;;;;;;13.18;5.50;;;;;;;20.82;34.20;93865.34;5004022;28;20136;-78
2021/09/12 09:21:45;;;;;;;12.40;5.22;;;;;;;20.90;34.02;93861.53;4993339;28;20029;-81
2021/09/12 09:24:29;;;;;;;7.88;4.80;;;;;;;21.00;33.93;93866.25;4993408;28;20038;-81
2021/09/12 09:26:59;;;;;;;9.77;4.70;;;;;;;21.06;32.06;93863.97;5006369;28;20037;-81
2021/09/12 09:29:29;;;;;;;9.35;4.90;;;;;;;21.15;32.00;93860.91;5003107;28;20113;-80
2021/09/12 09:32:10;;;;;;;8.10;4.18;;;;;;;21.38;32.17;93848.66;4992821;28;20034;-80
2021/09/12 09:34:37;;;;;;;6.10;4.13;;;;;;;21.49;32.39;93858.75;4997998;28;20049;-80
2021/09/12 09:37:18;;;;;;;11.70;4.32;;;;;;;21.26;30.78;93840.88;4995622;28;20028;-80
2021/09/12 09:39:45;;;;;;;8.82;4.10;;;;;;;21.17;31.11;93847.81;4997431;28;20101;-80
2021/09/12 09:42:29;;;;;;;7.43;4.68;;;;;;;21.38;30.13;93854.06;4993577;28;20046;-80
2021/09/12 09:45:03;;;;;;;9.88;4.00;;;;;;;21.33;30.56;93850.94;4995334;28;20037;-80
2021/09/12 09:47:29;;;;;;;7.03;3.80;;;;;;;21.26;28.96;93857.13;4996369;28;20057;-79
2021/09/12 09:50:09;;;;;;;8.68;3.50;;;;;;;21.32;30.54;93838.56;4995707;28;20504;-80
2021/09/12 09:52:35;;;;;;;11.20;4.30;;;;;;;21.36;28.29;93850.97;4995864;28;20038;-80
2021/09/12 09:55:02;;;;;;;6.97;3.58;;;;;;;21.64;29.19;93836.81;4997882;28;20030;-80
2021/09/12 09:57:28;;;;;;;9.60;4.35;;;;;;;21.37;28.86;93835.50;4993117;28;20038;-80
2021/09/12 09:59:55;;;;;;;8.80;4.47;;;;;;;21.55;29.49;93847.22;4994454;28;20038;-80
2021/09/12 10:02:20;;;;;;;5.88;4.95;;;;;;;21.35;30.34;93811.56;4992362;28;20035;-77
2021/09/12 10:04:46;;;;;;;7.03;4.78;;;;;;;21.57;30.38;93844.88;4997492;28;20046;-80
2021/09/12 10:07:12;;;;;;;6.93;5.18;;;;;;;21.78;30.18;93838.78;4996937;28;20388;-78
2021/09/12 10:09:38;;;;;;;7.78;4.07;;;;;;;21.60;29.53;93824.41;4989541;28;20034;-79
2021/09/12 10:12:09;;;;;;;10.23;4.63;;;;;;;21.68;30.03;93826.75;4994475;28;20428;-79
2021/09/12 10:14:40;;;;;;;5.47;3.88;;;;;;;21.81;30.06;93819.03;4995118;28;20040;-79
2021/09/12 10:17:11;;;;;;;7.03;4.05;;;;;;;21.91;30.27;93828.34;4992474;28;20042;-76
2021/09/12 10:19:39;;;;;;;9.23;4.90;;;;;;;22.06;30.66;93817.16;4997158;28;20035;-80
2021/09/12 10:22:17;;;;;;;12.32;6.05;;;;;;;22.11;29.33;93814.06;4998361;28;20033;-79
2021/09/12 10:25:01;;;;;;;14.32;5.38;;;;;;;22.22;29.32;93820.28;4990071;28;20042;-80
2021/09/12 10:27:39;;;;;;;7.18;4.65;;;;;;;22.15;28.98;93817.53;4994466;28;20591;-80
2021/09/12 10:30:36;;;;;;;8.40;4.50;;;;;;;22.23;28.92;93821.84;4994525;28;20073;-80
2021/09/12 10:33:05;;;;;;;10.00;4.68;;;;;;;22.32;30.83;93821.47;4994342;28;20117;-76
2021/09/12 10:35:36;;;;;;;9.57;3.80;;;;;;;22.12;28.99;93799.38;4992861;28;20744;-80
2021/09/12 10:38:04;;;;;;;8.13;3.75;;;;;;;22.39;29.05;93812.56;4995717;28;20496;-80
2021/09/12 10:41:04;;;;;;;6.65;3.83;;;;;;;22.30;28.13;93808.28;4991875;28;20057;-79
2021/09/12 10:43:30;;;;;;;10.77;4.32;;;;;;;22.22;28.03;93808.69;4990722;28;20629;-80
2021/09/12 10:46:02;;;;;;;7.75;4.03;;;;;;;22.21;27.03;93801.69;4994059;28;20034;-80
2021/09/12 10:48:29;;;;;;;8.35;3.65;;;;;;;22.21;28.49;93809.81;4991934;28;20046;-80
2021/09/12 10:50:55;;;;;;;12.30;4.60;;;;;;;22.27;28.37;93811.00;4992284;28;20046;-81
2021/09/12 10:53:42;;;;;;;4.53;3.13;;;;;;;22.56;30.48;93809.06;4994196;28;20041;-76
2021/09/12 10:56:08;;;;;;;7.63;4.15;;;;;;;22.48;28.12;93804.81;4994134;28;20030;-79
2021/09/12 10:58:33;;;;;;;9.98;3.70;;;;;;;22.56;28.12;93806.34;4991591;28;20041;-79
2021/09/12 11:01:01;;;;;;;8.23;4.50;;;;;;;22.63;28.71;93806.34;4995067;28;20086;-80
2021/09/12 11:03:27;;;;;;;6.53;3.70;;;;;;;22.49;26.82;93792.78;4991220;28;20497;-79
2021/09/12 11:05:53;;;;;;;9.48;5.75;;;;;;;22.48;28.23;93808.31;4992148;28;20043;-79
2021/09/12 11:08:19;;;;;;;9.75;4.40;;;;;;;22.38;28.13;93805.59;4989439;28;20038;-80
2021/09/12 11:10:47;;;;;;;9.07;3.92;;;;;;;22.56;28.83;93809.06;4999325;28;20053;-80
2021/09/12 11:13:22;;;;;;;6.60;4.32;;;;;;;22.38;28.22;93783.91;4991991;28;20026;-79
2021/09/12 11:15:47;;;;;;;5.85;3.72;;;;;;;22.62;26.72;93794.75;4993790;28;20099;-80
2021/09/12 11:18:13;;;;;;;5.47;3.22;;;;;;;22.68;28.46;93781.56;4994361;28;20046;-79
2021/09/12 11:20:47;;;;;;;6.18;3.63;;;;;;;22.67;27.38;93774.59;4994500;28;20370;-80
2021/09/12 11:23:33;;;;;;;7.07;3.53;;;;;;;22.92;27.62;93780.75;4993519;28;20065;-80
2021/09/12 11:25:59;;;;;;;7.32;3.95;;;;;;;22.78;27.44;93769.91;4997094;28;20715;-81
2021/09/12 11:28:27;;;;;;;5.40;3.00;;;;;;;23.05;27.25;93784.59;4994637;28;20578;-80
2021/09/12 11:30:52;;;;;;;6.65;2.90;;;;;;;23.27;26.40;93776.38;4996209;28;20073;-80